Time;durP1;ratioP1;P1;durP2;ratioP2;P2;SDS_P1;SDS_P2;PMS_P1;PMS_P2;Temp;Humidity;BMP_temperature;BMP_pressure;BME280_temperature;BME280_humidity;BME280_pressure;Samples;Min_cycle;Max_cycle;Signal;HPM_P1;HPM_P2
2023/12/24 00:00:29;;;;;;;23.50;3.90;;;;;;;;;;4987779;28;20042;-80
2023/12/24 00:02:55;;;;;;;17.45;4.20;;;;;;;;;;4975076;28;20077;-80
2023/12/24 00:05:21;;;;;;;18.25;4.28;;;;;;;;;;4981081;28;20087;-80
2023/12/24 00:07:47;;;;;;;16.88;3.78;;;;;;;;;;4975638;28;20818;-80
2023/12/24 00:10:13;;;;;;;19.15;5.68;;;;;;;;;;4971657;28;20039;-80
2023/12/24 00:12:39;;;;;;;26.40;6.13;;;;;;;;;;4961829;28;20133;-78
2023/12/24 00:15:06;;;;;;;17.52;4.15;;;;;;;;;;4962749;28;20041;-79
2023/12/24 00:17:32;;;;;;;19.35;4.25;;;;;;;;;;4989094;28;20077;-79
2023/12/24 00:19:59;;;;;;;14.23;4.07;;;;;;;;;;4970612;28;20096;-78
2023/12/24 00:22:27;;;;;;;22.65;4.65;;;;;;;;;;4977677;28;20034;-80
2023/12/24 00:24:53;;;;;;;16.42;4.43;;;;;;;;;;4974522;28;20038;-80
2023/12/24 00:27:19;;;;;;;20.83;5.10;;;;;;;;;;4992251;28;20049;-79
2023/12/24 00:29:45;;;;;;;28.73;5.80;;;;;;;;;;4974836;28;20125;-79
2023/12/24 00:32:12;;;;;;;21.95;5.70;;;;;;;;;;4992978;28;20070;-81
2023/12/24 00:34:38;;;;;;;19.92;5.22;;;;;;;;;;4979292;28;20555;-80
2023/12/24 00:37:04;;;;;;;25.40;5.45;;;;;;;;;;4991207;28;20042;-80
2023/12/24 00:39:30;;;;;;;29.08;5.68;;;;;;;;;;4988885;28;20050;-81
2023/12/24 00:41:56;;;;;;;29.75;6.40;;;;;;;;;;4991761;28;20140;-80
2023/12/24 00:44:22;;;;;;;24.75;5.10;;;;;;;;;;4954845;28;20041;-80
2023/12/24 00:46:48;;;;;;;21.33;5.07;;;;;;;;;;4996594;28;20042;-80
2023/12/24 00:49:14;;;;;;;17.63;4.63;;;;;;;;;;4992638;28;20066;-80
2023/12/24 00:51:42;;;;;;;15.75;3.95;;;;;;;;;;4990690;28;20046;-79
2023/12/24 00:54:08;;;;;;;44.60;7.38;;;;;;;;;;4976408;28;20046;-81
2023/12/24 00:56:34;;;;;;;16.02;4.85;;;;;;;;;;4990221;28;20038;-79
2023/12/24 00:59:00;;;;;;;16.38;4.07;;;;;;;;;;4982690;28;20520;-79
2023/12/24 01:01:26;;;;;;;24.17;5.68;;;;;;;;;;4976048;28;20048;-78
2023/12/24 01:03:52;;;;;;;14.55;4.57;;;;;;;;;;4965100;28;20120;-79
2023/12/24 01:06:18;;;;;;;20.42;5.85;;;;;;;;;;4977224;28;20038;-79
2023/12/24 01:08:44;;;;;;;16.02;4.70;;;;;;;;;;4991083;28;20091;-79
2023/12/24 01:11:12;;;;;;;30.73;6.30;;;;;;;;;;4973629;28;20088;-80
2023/12/24 01:13:38;;;;;;;11.98;4.35;;;;;;;;;;4977064;28;20065;-81
2023/12/24 01:16:05;;;;;;;22.95;4.75;;;;;;;;;;4988941;28;20046;-80
2023/12/24 01:18:31;;;;;;;18.17;5.25;;;;;;;;;;4973302;28;20042;-80
2023/12/24 01:20:57;;;;;;;24.58;5.30;;;;;;;;;;4987803;28;20069;-80
2023/12/24 01:23:23;;;;;;;24.40;5.65;;;;;;;;;;4993003;28;20038;-80
2023/12/24 01:25:49;;;;;;;21.02;4.72;;;;;;;;;;4992809;28;20512;-80
2023/12/24 01:28:15;;;;;;;17.98;4.88;;;;;;;;;;4986389;28;20127;-78
2023/12/24 01:30:41;;;;;;;14.43;4.40;;;;;;;;;;4988599;28;20465;-79
2023/12/24 01:33:08;;;;;;;14.90;4.13;;;;;;;;;;4958923;28;20140;-80
2023/12/24 01:35:34;;;;;;;15.25;4.38;;;;;;;;;;4976229;28;20626;-80
2023/12/24 01:38:00;;;;;;;16.45;5.28;;;;;;;;;;4977522;28;20050;-80
2023/12/24 01:40:26;;;;;;;16.58;5.38;;;;;;;;;;4988670;28;20125;-77
2023/12/24 01:42:52;;;;;;;15.18;3.72;;;;;;;;;;4978169;28;20048;-74
2023/12/24 01:45:18;;;;;;;19.52;4.68;;;;;;;;;;4973189;28;20030;-73
2023/12/24 01:47:44;;;;;;;24.52;5.18;;;;;;;;;;4975920;28;20073;-74
2023/12/24 01:50:11;;;;;;;21.80;4.47;;;;;;;;;;4977728;28;20049;-75
2023/12/24 01:52:37;;;;;;;20.23;4.53;;;;;;;;;;4977860;28;20489;-75
2023/12/24 01:55:04;;;;;;;22.90;4.65;;;;;;;;;;4990404;28;20507;-75
2023/12/24 01:57:31;;;;;;;21.92;5.47;;;;;;;;;;4975312;28;20050;-75
2023/12/24 01:59:58;;;;;;;27.67;5.90;;;;;;;;;;4979635;28;20077;-75
2023/12/24 02:02:27;;;;;;;11.90;3.22;;;;;;;;;;4988413;28;20039;-76
2023/12/24 02:04:53;;;;;;;15.95;4.00;;;;;;;;;;4997003;28;20064;-75
2023/12/24 02:07:20;;;;;;;12.25;3.60;;;;;;;;;;4968435;28;20041;-75
2023/12/24 02:09:46;;;;;;;25.48;4.60;;;;;;;;;;4987903;28;20033;-76
2023/12/24 02:12:12;;;;;;;22.45;4.90;;;;;;;;;;4981075;28;20080;-75
2023/12/24 02:14:38;;;;;;;22.20;4.57;;;;;;;;;;4996292;28;20100;-75
2023/12/24 02:17:04;;;;;;;17.55;5.63;;;;;;;;;;4966620;28;20042;-75
2023/12/24 02:19:30;;;;;;;20.05;4.63;;;;;;;;;;4984581;28;20038;-75
2023/12/24 02:21:56;;;;;;;16.08;4.15;;;;;;;;;;4979012;28;20030;-75
2023/12/24 02:24:23;;;;;;;14.75;4.45;;;;;;;;;;4980419;28;20044;-76
2023/12/24 02:26:53;;;;;;;15.98;3.85;;;;;;;;;;4960231;28;20069;-77
2023/12/24 02:29:21;;;;;;;10.50;3.58;;;;;;;;;;4987870;28;20112;-77
2023/12/24 02:31:48;;;;;;;10.25;3.70;;;;;;;;;;4980544;28;20394;-75
2023/12/24 02:34:17;;;;;;;9.48;3.78;;;;;;;;;;4994651;28;20471;-75
2023/12/24 02:36:46;;;;;;;7.30;1.98;;;;;;;;;;4993076;28;20128;-75
2023/12/24 02:39:12;;;;;;;11.75;3.53;;;;;;;;;;4982601;28;20578;-75
2023/12/24 02:41:38;;;;;;;16.35;4.07;;;;;;;;;;4992538;28;20607;-77
2023/12/24 02:44:04;;;;;;;16.58;5.25;;;;;;;;;;4981902;28;20119;-78
2023/12/24 02:46:30;;;;;;;18.38;5.53;;;;;;;;;;4992527;28;20042;-76
2023/12/24 02:48:56;;;;;;;21.48;4.68;;;;;;;;;;4996969;28;20065;-75
2023/12/24 02:51:22;;;;;;;13.38;4.57;;;;;;;;;;4970934;28;20050;-81
2023/12/24 02:53:48;;;;;;;22.05;5.25;;;;;;;;;;4987470;28;20042;-80
2023/12/24 02:56:14;;;;;;;17.65;4.13;;;;;;;;;;4988640;28;20045;-81
2023/12/24 02:58:43;;;;;;;16.55;4.75;;;;;;;;;;4989845;28;20042;-80
2023/12/24 03:01:09;;;;;;;17.50;5.05;;;;;;;;;;4976543;28;20046;-80
2023/12/24 03:03:35;;;;;;;26.83;5.10;;;;;;;;;;4993242;28;20050;-80
2023/12/24 03:06:01;;;;;;;13.32;4.30;;;;;;;;;;4993861;28;20034;-80
2023/12/24 03:08:27;;;;;;;21.13;6.45;;;;;;;;;;4975429;28;20037;-80
2023/12/24 03:10:53;;;;;;;19.38;5.65;;;;;;;;;;4992217;28;20378;-77
2023/12/24 03:13:19;;;;;;;28.17;6.78;;;;;;;;;;4975532;28;20053;-77
2023/12/24 03:15:45;;;;;;;23.60;5.57;;;;;;;;;;4976328;28;20047;-78
2023/12/24 03:18:11;;;;;;;22.00;5.88;;;;;;;;;;4993172;28;20408;-77
2023/12/24 03:20:37;;;;;;;18.48;4.40;;;;;;;;;;4976546;28;20042;-76
2023/12/24 03:23:04;;;;;;;22.10;6.45;;;;;;;;;;5014542;28;20469;-76
2023/12/24 03:25:30;;;;;;;15.60;4.93;;;;;;;;;;4988408;28;20049;-76
2023/12/24 03:27:56;;;;;;;12.32;3.17;;;;;;;;;;4995300;28;20077;-76
2023/12/24 03:30:22;;;;;;;15.57;4.28;;;;;;;;;;4994806;28;20045;-77
2023/12/24 03:32:48;;;;;;;14.07;3.90;;;;;;;;;;4973787;28;20053;-76
2023/12/24 03:35:14;;;;;;;9.93;2.75;;;;;;;;;;4988877;28;20057;-77
2023/12/24 03:37:40;;;;;;;11.38;2.97;;;;;;;;;;4990644;28;20397;-77
2023/12/24 03:40:06;;;;;;;21.08;5.10;;;;;;;;;;4975969;28;20516;-76
2023/12/24 03:42:32;;;;;;;11.45;3.92;;;;;;;;;;4972963;28;20101;-79
2023/12/24 03:44:58;;;;;;;12.93;3.70;;;;;;;;;;4991360;28;20081;-78
2023/12/24 03:47:25;;;;;;;9.68;3.03;;;;;;;;;;4991256;28;20063;-77
2023/12/24 03:49:51;;;;;;;11.60;3.67;;;;;;;;;;4980191;28;20041;-77
2023/12/24 03:52:17;;;;;;;13.20;3.92;;;;;;;;;;4988929;28;20048;-77
2023/12/24 03:54:43;;;;;;;17.15;4.50;;;;;;;;;;4976855;28;20041;-77
2023/12/24 03:57:09;;;;;;;7.95;3.45;;;;;;;;;;4967962;28;20038;-77
2023/12/24 03:59:35;;;;;;;15.10;4.07;;;;;;;;;;4991036;28;20095;-78
2023/12/24 04:02:02;;;;;;;8.32;2.72;;;;;;;;;;4990546;28;20042;-80
2023/12/24 04:04:28;;;;;;;13.15;3.28;;;;;;;;;;4988633;28;20456;-81
2023/12/24 04:06:54;;;;;;;9.65;2.97;;;;;;;;;;4973348;28;20038;-81
2023/12/24 04:09:21;;;;;;;16.80;3.10;;;;;;;;;;4960777;28;20121;-81
2023/12/24 04:11:50;;;;;;;4.90;1.83;;;;;;;;;;4989274;28;20054;-78
2023/12/24 04:14:17;;;;;;;7.75;2.53;;;;;;;;;;4993654;28;20042;-81
2023/12/24 04:16:43;;;;;;;3.72;1.95;;;;;;;;;;4989177;28;20057;-80
2023/12/24 04:19:10;;;;;;;6.72;2.10;;;;;;;;;;4956402;28;20041;-80
2023/12/24 04:21:36;;;;;;;8.98;3.08;;;;;;;;;;4992107;28;20042;-75
2023/12/24 04:24:02;;;;;;;6.50;2.55;;;;;;;;;;4980661;28;20064;-76
2023/12/24 04:26:28;;;;;;;8.13;2.72;;;;;;;;;;4975432;28;20073;-76
2023/12/24 04:28:54;;;;;;;7.50;2.85;;;;;;;;;;4975403;28;20042;-76
2023/12/24 04:31:21;;;;;;;8.40;3.17;;;;;;;;;;4979485;28;20081;-76
2023/12/24 04:33:47;;;;;;;4.35;2.47;;;;;;;;;;4989147;28;20396;-76
2023/12/24 04:36:19;;;;;;;6.93;2.72;;;;;;;;;;4959248;28;20101;-76
2023/12/24 04:38:45;;;;;;;7.00;2.83;;;;;;;;;;4975361;28;20081;-75
2023/12/24 04:41:15;;;;;;;8.70;3.00;;;;;;;;;;4993372;28;20070;-75
2023/12/24 04:43:41;;;;;;;4.57;2.55;;;;;;;;;;4991802;28;20076;-75
2023/12/24 04:46:07;;;;;;;5.97;2.65;;;;;;;;;;4993067;28;20042;-76
2023/12/24 04:48:34;;;;;;;3.00;2.10;;;;;;;;;;4958318;28;20030;-76
2023/12/24 04:51:00;;;;;;;3.20;1.98;;;;;;;;;;4968546;28;20053;-76
2023/12/24 04:53:26;;;;;;;4.45;2.55;;;;;;;;;;4996449;28;20120;-75
2023/12/24 04:55:54;;;;;;;6.55;2.35;;;;;;;;;;4991377;28;20072;-76
2023/12/24 04:58:20;;;;;;;7.18;2.67;;;;;;;;;;4990455;28;20093;-75
2023/12/24 05:00:46;;;;;;;5.97;2.50;;;;;;;;;;4972680;28;20042;-76
2023/12/24 05:03:12;;;;;;;3.35;1.80;;;;;;;;;;4971775;28;21013;-77
2023/12/24 05:05:40;;;;;;;5.88;2.33;;;;;;;;;;4979359;28;20037;-75
2023/12/24 05:08:06;;;;;;;5.57;2.55;;;;;;;;;;4978448;28;20030;-75
2023/12/24 05:10:32;;;;;;;5.57;2.78;;;;;;;;;;4972885;28;20125;-81
2023/12/24 05:12:58;;;;;;;7.13;2.97;;;;;;;;;;4990039;28;20099;-81
2023/12/24 05:15:24;;;;;;;8.50;3.40;;;;;;;;;;4961464;28;20041;-80
2023/12/24 05:17:50;;;;;;;8.25;3.33;;;;;;;;;;4972406;28;20046;-82
2023/12/24 05:20:16;;;;;;;4.97;3.10;;;;;;;;;;4971637;28;20050;-81
2023/12/24 05:22:42;;;;;;;6.38;2.95;;;;;;;;;;4961193;28;20041;-80
2023/12/24 05:25:10;;;;;;;7.68;2.72;;;;;;;;;;4992973;28;20041;-82
2023/12/24 05:27:38;;;;;;;4.90;3.08;;;;;;;;;;4988647;28;20124;-81
2023/12/24 05:30:04;;;;;;;8.23;3.03;;;;;;;;;;4960088;28;20060;-75
2023/12/24 05:32:30;;;;;;;8.30;3.13;;;;;;;;;;4971776;28;20065;-75
2023/12/24 05:34:56;;;;;;;12.32;3.55;;;;;;;;;;4989912;28;20042;-74
2023/12/24 05:37:22;;;;;;;7.60;3.13;;;;;;;;;;4988450;28;20045;-76
2023/12/24 05:39:48;;;;;;;12.52;4.22;;;;;;;;;;4989258;28;20456;-75
2023/12/24 05:42:14;;;;;;;10.70;4.32;;;;;;;;;;4976690;28;20404;-78
2023/12/24 05:44:40;;;;;;;9.40;4.53;;;;;;;;;;4960505;28;20038;-76
2023/12/24 05:47:07;;;;;;;9.27;4.50;;;;;;;;;;4972021;28;20129;-77
2023/12/24 05:49:33;;;;;;;13.68;5.93;;;;;;;;;;4979954;28;20033;-76
2023/12/24 05:51:59;;;;;;;15.60;5.97;;;;;;;;;;4977321;28;20289;-77
2023/12/24 05:54:25;;;;;;;16.33;4.88;;;;;;;;;;4993665;28;20486;-76
2023/12/24 05:56:52;;;;;;;20.65;5.65;;;;;;;;;;4991477;28;20068;-78
2023/12/24 05:59:18;;;;;;;16.60;5.22;;;;;;;;;;4993433;28;20506;-76
2023/12/24 06:01:44;;;;;;;16.45;4.93;;;;;;;;;;4972374;28;20042;-77
2023/12/24 06:04:10;;;;;;;23.10;6.22;;;;;;;;;;4974014;28;20046;-77
2023/12/24 06:06:40;;;;;;;21.98;5.93;;;;;;;;;;4976460;28;20121;-75
2023/12/24 06:09:06;;;;;;;13.15;4.80;;;;;;;;;;4972134;28;20038;-76
2023/12/24 06:11:32;;;;;;;20.52;6.85;;;;;;;;;;4973676;28;20512;-75
2023/12/24 06:13:58;;;;;;;17.42;6.97;;;;;;;;;;4959331;28;20193;-76
2023/12/24 06:16:24;;;;;;;23.15;5.88;;;;;;;;;;4968508;28;20041;-76
2023/12/24 06:18:50;;;;;;;22.63;6.10;;;;;;;;;;4975840;28;20046;-77
2023/12/24 06:21:17;;;;;;;18.60;6.72;;;;;;;;;;4972130;28;20050;-78
2023/12/24 06:23:43;;;;;;;21.70;6.05;;;;;;;;;;4993035;28;20038;-77
2023/12/24 06:26:10;;;;;;;21.25;6.05;;;;;;;;;;4957835;28;20042;-77
2023/12/24 06:28:36;;;;;;;22.08;6.00;;;;;;;;;;4989214;28;20053;-77
2023/12/24 06:31:02;;;;;;;27.85;6.35;;;;;;;;;;4990039;28;20517;-77
2023/12/24 06:33:28;;;;;;;22.40;6.03;;;;;;;;;;4972793;28;20034;-77
2023/12/24 06:35:54;;;;;;;18.40;5.50;;;;;;;;;;4975409;28;20046;-77
2023/12/24 06:38:20;;;;;;;29.60;6.85;;;;;;;;;;4988277;28;20046;-77
2023/12/24 06:40:46;;;;;;;17.80;7.25;;;;;;;;;;4973759;28;20049;-79
2023/12/24 06:43:12;;;;;;;22.40;6.43;;;;;;;;;;4992169;28;20041;-75
2023/12/24 06:45:38;;;;;;;22.85;5.88;;;;;;;;;;4960313;28;20886;-75
2023/12/24 06:48:05;;;;;;;22.58;4.70;;;;;;;;;;4960577;28;20034;-78
2023/12/24 06:50:31;;;;;;;21.27;6.38;;;;;;;;;;4978339;28;20049;-77
2023/12/24 06:52:57;;;;;;;23.33;6.25;;;;;;;;;;4979999;28;20058;-76
2023/12/24 06:55:23;;;;;;;17.55;5.53;;;;;;;;;;4978987;28;20082;-76
2023/12/24 06:57:49;;;;;;;18.88;4.85;;;;;;;;;;4991344;28;20130;-77
2023/12/24 07:00:16;;;;;;;19.92;5.55;;;;;;;;;;4973091;28;21763;-79
2023/12/24 07:02:42;;;;;;;22.95;6.68;;;;;;;;;;4973189;28;20061;-75
2023/12/24 07:05:08;;;;;;;22.73;7.10;;;;;;;;;;4976941;28;20619;-76
2023/12/24 07:07:34;;;;;;;17.38;5.53;;;;;;;;;;4960858;28;20039;-75
2023/12/24 07:10:00;;;;;;;18.98;5.88;;;;;;;;;;4963152;28;20133;-75
2023/12/24 07:12:28;;;;;;;22.42;5.03;;;;;;;;;;4975243;28;20046;-76
2023/12/24 07:14:54;;;;;;;13.02;4.72;;;;;;;;;;4962583;28;20045;-75
2023/12/24 07:17:20;;;;;;;16.77;5.88;;;;;;;;;;4979051;28;20037;-75
2023/12/24 07:19:46;;;;;;;17.27;5.57;;;;;;;;;;4974791;28;20252;-76
2023/12/24 07:22:16;;;;;;;16.40;4.50;;;;;;;;;;4979660;28;20041;-75
2023/12/24 07:24:42;;;;;;;17.50;5.97;;;;;;;;;;4959504;28;20080;-75
2023/12/24 07:27:08;;;;;;;17.67;4.90;;;;;;;;;;4992566;28;20034;-75
2023/12/24 07:29:34;;;;;;;21.15;5.45;;;;;;;;;;5000280;28;20460;-75
2023/12/24 07:32:00;;;;;;;22.67;5.57;;;;;;;;;;4978444;28;20845;-76
2023/12/24 07:34:26;;;;;;;24.33;5.60;;;;;;;;;;4975385;28;20092;-76
2023/12/24 07:36:52;;;;;;;11.82;4.15;;;;;;;;;;4990651;28;20045;-76
2023/12/24 07:39:19;;;;;;;20.85;6.20;;;;;;;;;;4993207;28;20037;-75
2023/12/24 07:41:47;;;;;;;20.42;6.15;;;;;;;;;;4968814;28;20088;-75
2023/12/24 07:44:13;;;;;;;21.25;6.10;;;;;;;;;;4992768;28;22778;-76
2023/12/24 07:46:39;;;;;;;26.40;6.30;;;;;;;;;;4994949;28;20073;-75
2023/12/24 07:49:05;;;;;;;23.80;6.05;;;;;;;;;;4995792;28;20088;-76
2023/12/24 07:51:33;;;;;;;23.02;5.90;;;;;;;;;;4993407;28;20058;-81
2023/12/24 07:53:59;;;;;;;25.63;5.15;;;;;;;;;;4991391;28;20108;-82
2023/12/24 07:56:25;;;;;;;24.40;5.85;;;;;;;;;;4974157;28;20124;-82
2023/12/24 07:58:51;;;;;;;19.20;4.95;;;;;;;;;;4974392;28;20053;-81
2023/12/24 08:01:17;;;;;;;27.15;6.78;;;;;;;;;;4976369;28;20041;-82
2023/12/24 08:03:43;;;;;;;18.13;6.00;;;;;;;;;;4978873;28;20704;-81
2023/12/24 08:06:09;;;;;;;24.60;5.65;;;;;;;;;;4965251;28;20494;-80
2023/12/24 08:08:35;;;;;;;17.67;5.82;;;;;;;;;;4960664;28;20401;-81
2023/12/24 08:11:02;;;;;;;26.55;6.75;;;;;;;;;;4989163;28;20116;-80
2023/12/24 08:13:28;;;;;;;18.30;4.65;;;;;;;;;;4975594;28;20049;-81
2023/12/24 08:15:54;;;;;;;21.95;5.38;;;;;;;;;;4959000;28;20042;-81
2023/12/24 08:18:20;;;;;;;22.75;5.35;;;;;;;;;;4977213;28;20049;-79
2023/12/24 08:20:46;;;;;;;24.40;7.25;;;;;;;;;;4975982;28;20034;-81
2023/12/24 08:23:12;;;;;;;16.60;5.10;;;;;;;;;;4977608;28;20041;-81
2023/12/24 08:25:38;;;;;;;27.77;6.22;;;;;;;;;;4961023;28;20100;-81
2023/12/24 08:28:06;;;;;;;26.20;5.53;;;;;;;;;;4971522;28;20048;-80
2023/12/24 08:30:32;;;;;;;24.52;6.18;;;;;;;;;;4990426;28;20088;-81
2023/12/24 08:32:58;;;;;;;18.63;6.13;;;;;;;;;;4991365;28;20231;-81
2023/12/24 08:35:24;;;;;;;20.23;6.30;;;;;;;;;;4972438;28;20045;-81
2023/12/24 08:37:50;;;;;;;20.67;6.97;;;;;;;;;;4973915;28;20077;-81
2023/12/24 08:40:16;;;;;;;31.42;8.38;;;;;;;;;;4976987;28;20045;-81
2023/12/24 08:42:42;;;;;;;29.02;7.00;;;;;;;;;;4988855;28;20034;-82
2023/12/24 08:45:08;;;;;;;25.35;6.65;;;;;;;;;;4977242;28;20038;-80
2023/12/24 08:47:35;;;;;;;18.95;6.88;;;;;;;;;;4973276;28;20042;-80
2023/12/24 08:50:01;;;;;;;22.92;6.05;;;;;;;;;;4977024;28;20492;-83
2023/12/24 08:52:27;;;;;;;16.70;6.75;;;;;;;;;;4990006;28;20038;-80
2023/12/24 08:54:53;;;;;;;24.00;6.80;;;;;;;;;;4961154;28;20045;-81
2023/12/24 08:57:19;;;;;;;22.00;6.57;;;;;;;;;;4979178;28;20049;-78
2023/12/24 08:59:45;;;;;;;29.23;6.78;;;;;;;;;;4980058;28;20095;-80
2023/12/24 09:02:11;;;;;;;32.90;7.65;;;;;;;;;;4981307;28;20084;-76
2023/12/24 09:04:37;;;;;;;21.17;6.57;;;;;;;;;;4970405;28;20375;-77
2023/12/24 09:07:03;;;;;;;17.80;5.65;;;;;;;;;;4977445;28;20037;-76
2023/12/24 09:09:29;;;;;;;20.48;6.40;;;;;;;;;;4976769;28;20045;-76
2023/12/24 09:11:55;;;;;;;27.02;6.88;;;;;;;;;;4965765;28;20073;-76
2023/12/24 09:14:21;;;;;;;18.83;5.80;;;;;;;;;;4976819;28;20057;-77
2023/12/24 09:16:48;;;;;;;23.45;6.20;;;;;;;;;;4975161;28;20045;-77
2023/12/24 09:19:14;;;;;;;12.85;4.68;;;;;;;;;;4974753;28;20038;-77
2023/12/24 09:21:40;;;;;;;19.23;6.30;;;;;;;;;;4990400;28;20127;-77
2023/12/24 09:24:07;;;;;;;18.42;5.60;;;;;;;;;;4958341;28;20041;-77
2023/12/24 09:26:33;;;;;;;23.85;6.05;;;;;;;;;;4958304;28;20099;-77
2023/12/24 09:28:59;;;;;;;28.40;6.07;;;;;;;;;;4978295;28;20474;-77
2023/12/24 09:31:25;;;;;;;25.10;7.75;;;;;;;;;;4987073;28;20062;-77
2023/12/24 09:33:51;;;;;;;21.77;4.80;;;;;;;;;;5001141;28;20085;-79
2023/12/24 09:36:17;;;;;;;20.08;6.40;;;;;;;;;;4984534;28;20489;-77
2023/12/24 09:38:43;;;;;;;30.00;6.15;;;;;;;;;;4957392;28;20038;-78
2023/12/24 09:41:09;;;;;;;29.17;5.28;;;;;;;;;;4993238;28;20064;-77
2023/12/24 09:43:38;;;;;;;26.48;5.85;;;;;;;;;;4992789;28;20046;-79
2023/12/24 09:46:04;;;;;;;26.30;5.55;;;;;;;;;;4968805;28;20125;-77
2023/12/24 09:48:30;;;;;;;24.52;5.57;;;;;;;;;;4982863;28;20049;-79
2023/12/24 09:50:56;;;;;;;24.77;5.82;;;;;;;;;;4987316;28;20044;-78
2023/12/24 09:53:22;;;;;;;18.55;4.28;;;;;;;;;;4982167;28;20160;-78
2023/12/24 09:55:48;;;;;;;23.75;5.47;;;;;;;;;;4979300;28;20130;-81
2023/12/24 09:58:15;;;;;;;19.05;5.35;;;;;;;;;;4966980;28;20143;-81
2023/12/24 10:00:41;;;;;;;27.63;5.97;;;;;;;;;;4987516;28;20176;-82
2023/12/24 10:03:07;;;;;;;23.33;5.57;;;;;;;;;;4984544;28;20030;-81
2023/12/24 10:05:33;;;;;;;21.48;4.25;;;;;;;;;;4982167;28;20043;-82
2023/12/24 10:07:59;;;;;;;30.48;5.75;;;;;;;;;;4975697;28;20054;-81
2023/12/24 10:10:32;;;;;;;18.25;3.38;;;;;;;;;;4968635;28;20045;-81
2023/12/24 10:13:06;;;;;;;12.60;3.15;;;;;;;;;;4969676;28;20046;-82
2023/12/24 10:15:38;;;;;;;15.30;3.65;;;;;;;;;;4998296;28;20499;-83
2023/12/24 10:18:19;;;;;;;21.83;4.60;;;;;;;;;;4966443;28;20045;-78
2023/12/24 10:20:46;;;;;;;28.25;5.22;;;;;;;;;;4978189;28;20046;-82
2023/12/24 10:23:12;;;;;;;27.35;6.05;;;;;;;;;;4972342;28;20066;-83
2023/12/24 10:25:38;;;;;;;29.23;4.78;;;;;;;;;;4976126;28;20481;-81
2023/12/24 10:28:09;;;;;;;25.35;5.40;;;;;;;;;;4987045;28;20038;-81
2023/12/24 10:30:35;;;;;;;19.35;4.18;;;;;;;;;;4974989;28;20532;-82
2023/12/24 10:33:09;;;;;;;21.67;4.50;;;;;;;;;;4996588;28;20065;-81
2023/12/24 10:35:35;;;;;;;25.27;5.07;;;;;;;;;;4970683;28;20473;-82
2023/12/24 10:38:07;;;;;;;17.08;4.63;;;;;;;;;;4960506;28;20092;-84
2023/12/24 10:40:33;;;;;;;21.02;4.50;;;;;;;;;;4990235;28;20038;-84
2023/12/24 10:42:59;;;;;;;20.85;4.53;;;;;;;;;;4986402;28;20060;-84
2023/12/24 10:45:25;;;;;;;21.48;4.57;;;;;;;;;;4974903;28;20103;-84
2023/12/24 10:47:51;;;;;;;21.92;4.85;;;;;;;;;;4975511;28;20049;-83
2023/12/24 10:50:17;;;;;;;24.17;4.10;;;;;;;;;;4985029;28;20087;-83
2023/12/24 10:52:43;;;;;;;26.83;5.18;;;;;;;;;;4990797;28;20535;-84
2023/12/24 10:55:10;;;;;;;12.80;3.15;;;;;;;;;;4972678;28;20038;-84
2023/12/24 10:57:37;;;;;;;22.75;3.78;;;;;;;;;;4975295;28;20049;-84
2023/12/24 11:00:14;;;;;;;17.33;3.78;;;;;;;;;;4993171;28;20034;-85
2023/12/24 11:02:45;;;;;;;19.08;4.05;;;;;;;;;;4971911;28;20092;-78
2023/12/24 11:05:11;;;;;;;18.23;3.83;;;;;;;;;;4991979;28;20393;-78
2023/12/24 11:07:38;;;;;;;17.73;3.83;;;;;;;;;;4985620;28;20046;-78
2023/12/24 11:10:05;;;;;;;15.15;3.40;;;;;;;;;;4994230;28;21035;-78
2023/12/24 11:12:32;;;;;;;18.77;3.67;;;;;;;;;;4980236;28;20044;-78
2023/12/24 11:14:59;;;;;;;24.45;3.90;;;;;;;;;;4976500;28;20038;-79
2023/12/24 11:17:36;;;;;;;14.88;3.70;;;;;;;;;;4982587;28;20046;-78
2023/12/24 11:20:17;;;;;;;12.70;2.78;;;;;;;;;;4991261;28;20053;-78
2023/12/24 11:23:04;;;;;;;19.00;3.83;;;11.80;99.90;;;;;;4974525;28;20172;-79
2023/12/24 11:25:37;;;;;;;13.60;3.47;;;;;;;;;;4978237;28;20465;-79
2023/12/24 11:28:03;;;;;;;20.48;3.33;;;;;;;;;;4974792;28;20057;-79
2023/12/24 11:30:29;;;;;;;25.60;4.55;;;;;;;;;;4990705;28;20042;-79
2023/12/24 11:32:55;;;;;;;15.88;3.60;;;;;;;;;;4988657;28;20517;-78
2023/12/24 11:35:53;;;;;;;14.85;3.72;;;15.40;99.90;;;;;;4976294;28;22099;-78
2023/12/24 11:38:34;;;;;;;11.95;3.42;;;;;;;;;;4972373;28;20404;-78
2023/12/24 11:41:04;;;;;;;12.10;2.85;;;;;;;;;;4990906;28;20572;-78
2023/12/24 11:43:30;;;;;;;16.30;3.75;;;;;;;;;;4974826;28;20046;-78
2023/12/24 11:45:57;;;;;;;19.25;4.10;;;;;;;;;;4976584;28;20041;-78
2023/12/24 11:48:30;;;;;;;10.80;3.50;;;;;;;;;;4959181;28;20047;-77
2023/12/24 11:51:09;;;;;;;17.83;4.00;;;;;;;;;;4962960;28;20124;-77
2023/12/24 11:53:38;;;;;;;16.33;3.50;;;;;;;;;;4993763;28;20441;-78
2023/12/24 11:56:10;;;;;;;20.83;5.85;;;;;;;;;;4986932;28;20041;-77
2023/12/24 11:58:37;;;;;;;22.75;3.63;;;;;;;;;;4976595;28;20096;-77
2023/12/24 12:01:04;;;;;;;15.10;4.18;;;;;;;;;;4966344;28;20050;-82
2023/12/24 12:03:31;;;;;;;18.95;5.50;;;;;;;;;;4975949;28;20508;-80
2023/12/24 12:05:57;;;;;;;12.80;3.58;;;;;;;;;;4981667;28;20379;-81
2023/12/24 12:08:23;;;;;;;17.83;3.78;;;;;;;;;;4986282;28;20055;-82
2023/12/24 12:10:51;;;;;;;22.48;4.65;;;;;;;;;;4991179;28;20043;-83
2023/12/24 12:13:17;;;;;;;11.38;2.80;;;;;;;;;;4974625;28;20041;-89
2023/12/24 12:15:43;;;;;;;23.02;4.13;;;;;;;;;;4983239;28;20046;-86
2023/12/24 12:18:09;;;;;;;23.58;3.63;;;;;;;;;;4981599;28;20045;-90
2023/12/24 12:20:36;;;;;;;23.92;3.65;;;;;;;;;;4965830;28;20160;-89
2023/12/24 12:23:02;;;;;;;19.20;3.40;;;;;;;;;;4983592;28;20030;-90
2023/12/24 12:25:28;;;;;;;15.07;3.20;;;;;;;;;;4976884;28;20046;-83
2023/12/24 12:27:54;;;;;;;15.00;3.38;;;;;;;;;;4989711;28;20037;-83
2023/12/24 12:30:22;;;;;;;16.38;3.05;;;;;;;;;;4993887;28;20046;-82
2023/12/24 12:32:48;;;;;;;8.63;2.92;;;;;;;;;;4982756;28;20140;-79
2023/12/24 12:35:17;;;;;;;20.05;4.43;;;;;;;;;;4979411;28;20053;-79
2023/12/24 12:37:43;;;;;;;10.90;3.30;;;;;;;;;;4986332;28;20043;-80
2023/12/24 12:40:10;;;;;;;12.35;2.58;;;;;;;;;;4975797;28;20046;-79
2023/12/24 12:42:36;;;;;;;12.45;2.75;;;;;;;;;;4992594;28;20038;-79
2023/12/24 12:45:02;;;;;;;14.45;3.15;;;;;;;;;;4958775;28;20477;-80
2023/12/24 12:47:28;;;;;;;19.15;3.15;;;;;;;;;;4988179;28;20037;-78
2023/12/24 12:49:54;;;;;;;17.80;3.00;;;;;;;;;;4957614;28;20456;-78
2023/12/24 12:52:21;;;;;;;13.80;3.42;;;;;;;;;;4972780;28;20065;-79
2023/12/24 12:54:47;;;;;;;17.25;3.83;;;;;;;;;;4983309;28;20077;-79
2023/12/24 12:57:28;;;;;;;25.63;5.28;;;;;;;;;;4961713;28;20050;-79
2023/12/24 13:00:00;;;;;;;16.13;3.60;;;;;;;;;;4978404;28;20051;-79
2023/12/24 13:02:26;;;;;;;18.67;3.40;;;;;;;;;;4981635;28;20045;-79
2023/12/24 13:04:52;;;;;;;19.33;3.72;;;;;;;;;;4979030;28;20132;-79
2023/12/24 13:07:18;;;;;;;13.40;3.00;;;;;;;;;;4965308;28;20636;-80
2023/12/24 13:09:45;;;;;;;17.63;3.30;;;;;;;;;;4974664;28;20037;-80
2023/12/24 13:12:11;;;;;;;38.08;4.40;;;;;;;;;;4995747;28;20125;-80
2023/12/24 13:14:37;;;;;;;22.23;3.75;;;;;;;;;;4986834;28;21876;-80
2023/12/24 13:17:10;;;;;;;15.93;2.60;;;;;;;;;;4988890;28;20180;-80
2023/12/24 13:19:40;;;;;;;7.72;2.72;;;;;;;;;;4988049;28;20113;-81
2023/12/24 13:22:06;;;;;;;21.77;3.60;;;;;;;;;;4988963;28;20042;-83
2023/12/24 13:24:33;;;;;;;10.00;2.60;;;;;;;;;;4956655;28;20992;-83
2023/12/24 13:27:00;;;;;;;17.42;3.38;;;;;;;;;;4988541;28;20049;-83
2023/12/24 13:29:29;;;;;;;18.45;3.10;;;;;;;;;;4975494;28;20117;-83
2023/12/24 13:31:55;;;;;;;13.80;3.13;;;;;;;;;;4969795;28;20080;-83
2023/12/24 13:34:21;;;;;;;16.48;2.88;;;;;;;;;;4957334;28;20048;-83
2023/12/24 13:36:47;;;;;;;18.23;4.07;;;;;;;;;;4953630;28;20038;-83
2023/12/24 13:39:16;;;;;;;13.55;3.38;;;;;;;;;;4971211;28;20037;-83
2023/12/24 13:41:43;;;;;;;17.15;4.15;;;;;;;;;;4970678;28;20410;-83
2023/12/24 13:44:09;;;;;;;16.30;3.33;;;;;;;;;;4956025;28;20030;-83
2023/12/24 13:46:35;;;;;;;21.17;3.75;;;;;;;;;;4985562;28;20050;-82
2023/12/24 13:49:03;;;;;;;18.52;3.78;;;;;;;;;;4975801;28;20049;-82
2023/12/24 13:51:30;;;;;;;23.83;4.30;;;;;;;;;;4969622;28;20050;-84
2023/12/24 13:53:57;;;;;;;17.17;4.50;;;;;;;;;;4971590;28;20184;-83
2023/12/24 13:56:23;;;;;;;23.13;4.10;;;;;;;;;;4987020;28;20042;-82
2023/12/24 13:58:49;;;;;;;16.65;4.72;;;;;;;;;;4966975;28;20045;-84
2023/12/24 14:01:15;;;;;;;18.30;3.53;;;;;;;;;;4966217;28;20076;-83
2023/12/24 14:03:41;;;;;;;23.40;4.15;;;;;;;;;;4970399;28;20482;-83
2023/12/24 14:06:07;;;;;;;17.00;3.80;;;;;;;;;;4985504;28;20053;-83
2023/12/24 14:08:35;;;;;;;11.70;3.63;;;;;;;;;;4982287;28;20062;-84
2023/12/24 14:11:01;;;;;;;11.27;2.63;;;;;;;;;;4971689;28;20052;-85
2023/12/24 14:13:27;;;;;;;19.95;3.45;;;;;;;;;;4984059;28;20046;-84
2023/12/24 14:15:53;;;;;;;10.25;2.88;;;;;;;;;;4972431;28;20073;-85
2023/12/24 14:18:19;;;;;;;10.07;2.90;;;;;;;;;;4956802;28;20053;-84
2023/12/24 14:20:45;;;;;;;9.27;1.73;;;;;;;;;;4980344;28;20043;-84
2023/12/24 14:23:11;;;;;;;9.52;2.70;;;;;;;;;;4988919;28;20061;-86
2023/12/24 14:25:37;;;;;;;17.73;2.50;;;;;;;;;;4969926;28;20049;-84
2023/12/24 14:28:04;;;;;;;12.10;2.80;;;;;;;;;;4983103;28;20125;-82